Time;durP1;ratioP1;P1;durP2;ratioP2;P2;SDS_P1;SDS_P2;PMS_P1;PMS_P2;Temp;Humidity;BMP_temperature;BMP_pressure;BME280_temperature;BME280_humidity;BME280_pressure;Samples;Min_cycle;Max_cycle;Signal;HPM_P1;HPM_P2
2021/06/13 00:00:46;;;;;;;7.83;5.12;;;;;;;13.51;81.97;100249.08;1658876;84;28205;-75
2021/06/13 00:03:15;;;;;;;15.25;6.45;;;;;;;13.50;81.96;100252.80;1693355;84;25825;-76
2021/06/13 00:05:42;;;;;;;14.75;5.85;;;;;;;13.48;81.98;100255.39;1647758;84;25920;-76
2021/06/13 00:08:09;;;;;;;8.68;5.15;;;;;;;13.47;82.06;100259.94;1638030;84;26357;-77
2021/06/13 00:10:36;;;;;;;10.82;4.67;;;;;;;13.46;82.19;100261.50;1687179;84;25790;-76
2021/06/13 00:13:03;;;;;;;14.05;6.58;;;;;;;13.40;82.19;100252.44;1659487;84;27207;-76
2021/06/13 00:15:30;;;;;;;12.00;5.40;;;;;;;13.38;82.25;100257.72;1656770;84;26512;-76
2021/06/13 00:17:57;;;;;;;9.83;5.62;;;;;;;13.38;82.33;100258.55;1645778;84;26013;-76
2021/06/13 00:20:29;;;;;;;14.00;5.45;;;;;;;13.35;82.37;100254.92;1680992;83;26292;-76
2021/06/13 00:22:56;;;;;;;10.82;5.42;;;;;;;13.36;82.54;100267.87;1662587;84;25819;-76
2021/06/13 00:25:23;;;;;;;9.90;5.60;;;;;;;13.30;82.56;100260.66;1645931;84;27475;-76
2021/06/13 00:27:50;;;;;;;12.60;6.28;;;;;;;13.29;82.71;100258.98;1641919;84;25933;-76
2021/06/13 00:30:18;;;;;;;8.80;5.65;;;;;;;13.27;82.79;100259.20;1674545;83;25963;-76
2021/06/13 00:32:45;;;;;;;11.57;5.67;;;;;;;13.26;82.96;100262.92;1654727;84;26507;-76
2021/06/13 00:35:14;;;;;;;9.40;5.40;;;;;;;13.25;82.88;100259.11;1643410;85;25900;-76
2021/06/13 00:37:41;;;;;;;9.23;4.75;;;;;;;13.23;82.94;100264.70;1652273;84;28235;-76
2021/06/13 00:40:09;;;;;;;10.25;4.58;;;;;;;13.19;83.13;100268.03;1682762;83;25891;-76
2021/06/13 00:42:38;;;;;;;9.68;4.87;;;;;;;13.17;82.94;100264.22;1664771;84;26627;-76
2021/06/13 00:45:07;;;;;;;10.38;5.75;;;;;;;13.14;83.04;100265.45;1643527;84;26054;-76
2021/06/13 00:47:34;;;;;;;7.85;5.67;;;;;;;13.16;82.96;100257.17;1647500;84;26116;-76
2021/06/13 00:50:08;;;;;;;8.43;5.28;;;;;;;13.17;82.93;100260.69;1661081;83;28126;-76
2021/06/13 00:52:35;;;;;;;9.63;4.87;;;;;;;13.14;83.11;100260.08;1696801;84;25823;-76
2021/06/13 00:55:05;;;;;;;7.78;5.40;;;;;;;13.06;82.95;100264.86;1648372;84;25868;-76
2021/06/13 00:57:32;;;;;;;8.18;4.78;;;;;;;13.06;83.01;100263.52;1668087;84;26598;-76
2021/06/13 00:59:59;;;;;;;11.38;4.42;;;;;;;13.06;83.14;100265.69;1685470;83;25954;-76
2021/06/13 01:02:27;;;;;;;8.95;4.87;;;;;;;13.03;82.85;100268.76;1675560;84;27515;-76
2021/06/13 01:04:54;;;;;;;9.50;4.37;;;;;;;13.02;82.77;100268.44;1662791;84;26271;-76
2021/06/13 01:07:33;;;;;;;12.10;5.37;;;;;;;13.03;82.63;100278.68;1639695;85;25970;-76
2021/06/13 01:10:05;;;;;;;11.43;4.75;;;;;;;13.02;82.54;100272.47;1680543;83;25782;-76
2021/06/13 01:12:49;;;;;;;9.75;4.35;;;;;;;13.01;82.45;100276.20;1675329;84;25981;-77
2021/06/13 01:15:20;;;;;;;12.18;4.35;;;;;;;12.98;82.28;100275.27;1655239;84;27148;-76
2021/06/13 01:18:07;;;;;;;13.72;4.60;;;;;;;12.92;82.39;100275.28;1631997;85;25913;-76
2021/06/13 01:20:48;;;;;;;11.50;4.80;;;;;;;12.89;82.38;100281.09;1684191;84;26465;-76
2021/06/13 01:23:53;;;;;;;;;;;;;;;12.86;82.35;100270.75;1657114;85;25983;-76
2021/06/13 01:26:42;;;;;;;18.30;4.45;;;;;;;12.82;82.33;100275.73;1644750;86;25825;-76
2021/06/13 01:29:32;;;;;;;8.80;4.37;;;;;;;12.75;82.31;100270.03;1663809;85;27471;-76
2021/06/13 01:32:22;;;;;;;13.62;4.20;;;;;;;12.72;82.21;100267.78;1628657;84;25934;-76
2021/06/13 01:34:54;;;;;;;8.23;4.30;;;;;;;12.72;82.20;100275.84;1679917;84;25976;-76
2021/06/13 01:37:27;;;;;;;9.95;5.20;;;;;;;12.67;82.01;100264.88;1678665;84;25833;-76
2021/06/13 01:40:07;;;;;;;12.50;3.98;;;;;;;12.63;82.06;100264.99;1679901;84;25566;-76
2021/06/13 01:42:38;;;;;;;14.20;5.15;;;;;;;12.59;81.95;100268.63;1655975;84;28283;-75
2021/06/13 01:45:11;;;;;;;9.55;4.28;;;;;;;12.58;81.87;100270.16;1680987;84;26303;-76
2021/06/13 01:47:40;;;;;;;7.20;4.00;;;;;;;12.56;81.79;100273.56;1684272;84;25872;-75
2021/06/13 01:50:09;;;;;;;9.90;4.25;;;;;;;12.55;81.81;100273.27;1614722;85;26199;-75
2021/06/13 01:52:38;;;;;;;10.05;4.33;;;;;;;12.54;81.64;100271.61;1644041;85;25935;-75
2021/06/13 01:55:08;;;;;;;11.20;4.92;;;;;;;12.52;81.61;100275.02;1655294;84;27480;-76
2021/06/13 01:57:40;;;;;;;8.23;3.75;;;;;;;12.51;81.60;100278.75;1644615;85;25873;-76
2021/06/13 02:00:21;;;;;;;11.18;4.03;;;;;;;12.48;81.54;100274.62;1632614;85;25959;-76
2021/06/13 02:02:53;;;;;;;10.20;3.65;;;;;;;12.46;81.53;100271.82;1625753;86;25928;-76
2021/06/13 02:05:25;;;;;;;9.13;4.15;;;;;;;12.43;81.40;100271.71;1671303;85;25982;-75
2021/06/13 02:07:55;;;;;;;9.73;3.37;;;;;;;12.38;81.48;100272.87;1670758;84;27573;-76
2021/06/13 02:10:25;;;;;;;10.15;3.33;;;;;;;12.38;81.45;100275.02;1646364;84;26583;-77
2021/06/13 02:12:53;;;;;;;15.50;4.10;;;;;;;12.41;81.49;100284.52;1669949;84;25847;-76
2021/06/13 02:15:23;;;;;;;7.50;4.08;;;;;;;12.40;81.43;100288.26;1692853;84;25938;-76
2021/06/13 02:17:54;;;;;;;12.75;3.98;;;;;;;12.40;81.55;100286.92;1692241;84;26588;-76
2021/06/13 02:20:29;;;;;;;8.55;3.45;;;;;;;12.33;81.47;100288.77;1670689;84;27516;-76
2021/06/13 02:22:58;;;;;;;11.30;4.05;;;;;;;12.31;81.56;100288.14;1644038;84;26479;-75
2021/06/13 02:25:27;;;;;;;5.50;3.02;;;;;;;12.34;81.65;100295.27;1694318;84;25862;-76
2021/06/13 02:28:01;;;;;;;12.65;3.98;;;;;;;12.35;81.52;100296.93;1644072;84;25878;-76
2021/06/13 02:30:36;;;;;;;9.15;3.33;;;;;;;12.33;81.40;100300.34;1644505;84;25774;-75
2021/06/13 02:33:05;;;;;;;12.40;3.83;;;;;;;12.31;81.34;100303.75;1653690;85;29480;-76
2021/06/13 02:35:34;;;;;;;12.03;3.50;;;;;;;12.31;81.46;100308.28;1645633;83;25945;-76
2021/06/13 02:38:02;;;;;;;9.50;3.72;;;;;;;12.30;81.38;100306.61;1669153;84;25908;-75
2021/06/13 02:40:29;;;;;;;12.18;3.33;;;;;;;12.28;81.28;100310.02;1672186;84;25913;-76
2021/06/13 02:42:58;;;;;;;7.40;3.12;;;;;;;12.28;81.32;100309.52;1693250;84;25822;-76
2021/06/13 02:45:26;;;;;;;13.62;3.37;;;;;;;12.28;81.22;100313.55;1668909;84;27430;-76
2021/06/13 02:47:55;;;;;;;7.42;3.05;;;;;;;12.28;81.09;100319.42;1646311;84;25847;-76
2021/06/13 02:50:26;;;;;;;9.00;3.52;;;;;;;12.25;81.02;100322.53;1665378;84;25764;-76
2021/06/13 02:53:32;;;;;;;11.85;3.87;;;;;;;12.22;81.02;100329.64;1668302;85;25846;-76
2021/06/13 02:56:10;;;;;;;7.15;3.40;;;;;;;12.22;81.00;100325.61;1669285;84;26530;-76
2021/06/13 02:58:47;;;;;;;10.88;3.80;;;;;;;12.17;81.11;100332.94;1693910;83;27578;-76
2021/06/13 03:01:18;;;;;;;9.08;3.25;;;;;;;12.16;81.18;100330.47;1639029;84;25925;-76
2021/06/13 03:03:46;;;;;;;10.85;4.28;;;;;;;12.16;81.13;100326.44;1674410;84;25810;-76
2021/06/13 03:06:20;;;;;;;11.08;4.25;;;;;;;12.15;81.23;100330.97;1638664;84;26366;-76
2021/06/13 03:08:48;;;;;;;13.62;4.05;;;;;;;12.15;81.35;100336.34;1673124;85;25873;-76
2021/06/13 03:11:18;;;;;;;9.70;3.35;;;;;;;12.17;81.19;100340.16;1671750;85;27631;-76
2021/06/13 03:13:48;;;;;;;9.00;3.98;;;;;;;12.17;81.15;100339.65;1680694;84;25789;-76
2021/06/13 03:16:18;;;;;;;8.63;3.47;;;;;;;12.16;81.20;100341.20;1659791;84;25766;-76
2021/06/13 03:18:50;;;;;;;11.85;4.70;;;;;;;12.10;81.17;100346.84;1680980;84;25848;-76
2021/06/13 03:21:18;;;;;;;;;;;;;;;12.08;81.25;100350.26;1658483;84;25864;-76
2021/06/13 03:23:47;;;;;;;9.03;3.35;;;;;;;12.09;81.31;100355.95;1664899;84;27508;-76
2021/06/13 03:26:15;;;;;;;7.83;3.33;;;;;;;12.08;81.49;100356.16;1654722;84;26056;-76
2021/06/13 03:28:44;;;;;;;7.17;3.40;;;;;;;12.07;81.49;100345.93;1649465;85;26023;-76
2021/06/13 03:31:13;;;;;;;8.88;2.85;;;;;;;12.08;81.42;100352.13;1687846;83;26703;-76
2021/06/13 03:33:42;;;;;;;8.83;3.60;;;;;;;12.09;81.38;100353.78;1669659;83;25920;-76
2021/06/13 03:36:11;;;;;;;9.65;3.45;;;;;;;12.10;81.31;100362.16;1611312;84;27538;-76
2021/06/13 03:38:39;;;;;;;10.10;3.83;;;;;;;12.09;81.35;100364.01;1666059;85;25790;-76
2021/06/13 03:41:09;;;;;;;7.10;3.33;;;;;;;12.13;81.30;100362.56;1683863;84;26196;-76
2021/06/13 03:43:36;;;;;;;12.18;4.33;;;;;;;12.16;81.20;100370.73;1629391;85;25879;-76
2021/06/13 03:46:03;;;;;;;11.00;3.40;;;;;;;12.20;81.41;100370.14;1616554;86;26197;-76
2021/06/13 03:48:32;;;;;;;9.90;4.12;;;;;;;12.26;81.37;100376.03;1632351;86;27115;-76
2021/06/13 03:51:00;;;;;;;9.33;3.33;;;;;;;12.29;81.30;100378.84;1649739;86;26074;-76
2021/06/13 03:53:27;;;;;;;8.93;3.20;;;;;;;12.31;81.26;100373.58;1664283;85;26274;-77
2021/06/13 03:55:54;;;;;;;16.05;3.67;;;;;;;12.33;81.32;100378.23;1627827;85;26130;-76
2021/06/13 03:58:25;;;;;;;8.88;3.62;;;;;;;12.34;81.12;100381.72;1660393;85;25639;-76
2021/06/13 04:00:55;;;;;;;7.30;3.17;;;;;;;12.35;81.22;100384.22;1669988;83;27519;-76
2021/06/13 04:03:24;;;;;;;8.20;3.37;;;;;;;12.35;81.14;100386.91;1672492;84;26539;-76
2021/06/13 04:05:52;;;;;;;12.98;3.12;;;;;;;12.35;81.22;100390.94;1669074;84;26400;-76
2021/06/13 04:08:20;;;;;;;10.75;3.40;;;;;;;12.35;81.07;100392.28;1668111;83;25874;-76
2021/06/13 04:10:53;;;;;;;11.50;4.25;;;;;;;12.33;80.97;100392.16;1714758;83;25959;-76
2021/06/13 04:13:21;;;;;;;9.10;3.42;;;;;;;12.31;81.12;100398.25;1691996;83;28145;-76
2021/06/13 04:15:53;;;;;;;9.20;3.80;;;;;;;12.33;81.14;100402.91;1683499;83;25875;-76
2021/06/13 04:18:20;;;;;;;7.50;2.98;;;;;;;12.35;81.43;100400.84;1687455;83;26643;-76
2021/06/13 04:20:49;;;;;;;9.43;3.08;;;;;;;12.35;81.21;100399.00;1702338;81;26673;-76
2021/06/13 04:23:16;;;;;;;9.33;2.80;;;;;;;12.36;81.22;100403.32;1680656;83;25800;-76
2021/06/13 04:25:44;;;;;;;9.03;2.98;;;;;;;12.39;81.34;100402.93;1674652;83;27652;-76
2021/06/13 04:28:16;;;;;;;13.98;3.50;;;;;;;12.43;81.19;100407.88;1675618;83;25884;-76
2021/06/13 04:31:03;;;;;;;8.83;3.12;;;;;;;12.48;81.10;100408.94;1707232;83;25833;-77
2021/06/13 04:33:32;;;;;;;6.92;2.90;;;;;;;12.52;81.25;100414.72;1660174;84;25988;-76
2021/06/13 04:36:00;;;;;;;6.42;3.15;;;;;;;12.54;81.00;100412.66;1637690;84;25980;-76
2021/06/13 04:38:28;;;;;;;10.43;3.40;;;;;;;12.54;80.83;100412.66;1670341;82;27458;-76
2021/06/13 04:40:55;;;;;;;7.70;3.27;;;;;;;12.56;80.80;100420.83;1693621;82;25344;-76
2021/06/13 04:43:23;;;;;;;5.97;3.00;;;;;;;12.58;80.74;100421.45;1665507;84;25866;-76
2021/06/13 04:45:50;;;;;;;10.95;3.20;;;;;;;12.60;80.56;100421.23;1649297;84;26137;-76
2021/06/13 04:48:19;;;;;;;8.25;2.75;;;;;;;12.62;80.64;100424.55;1648033;84;25833;-76
2021/06/13 04:50:47;;;;;;;9.53;3.22;;;;;;;12.64;80.52;100431.38;1694044;83;27546;-76
2021/06/13 04:54:02;;;;;;;9.53;2.80;;;;;;;12.63;80.57;100434.28;1695639;84;25972;-76
2021/06/13 04:56:50;;;;;;;7.83;3.10;;;;;;;12.62;80.58;100429.92;1689904;84;25815;-76
2021/06/13 04:59:17;;;;;;;7.58;2.85;;;;;;;12.59;80.65;100429.84;1689012;84;26231;-76
2021/06/13 05:01:44;;;;;;;6.00;2.65;;;;;;;12.58;80.81;100430.86;1681444;83;26253;-76
2021/06/13 05:04:12;;;;;;;9.15;3.15;;;;;;;12.61;80.65;100429.63;1674085;84;27629;-76
2021/06/13 05:06:43;;;;;;;6.58;3.17;;;;;;;12.63;80.60;100431.59;1637428;84;25726;-76
2021/06/13 05:09:11;;;;;;;6.37;2.47;;;;;;;12.65;80.93;100442.45;1636458;84;25984;-77
2021/06/13 05:11:39;;;;;;;11.45;2.98;;;;;;;12.68;80.68;100442.57;1655196;84;25869;-76
2021/06/13 05:14:07;;;;;;;7.75;2.98;;;;;;;12.70;80.56;100441.84;1651914;85;25817;-76
2021/06/13 05:16:34;;;;;;;11.70;3.08;;;;;;;12.69;80.64;100447.73;1621619;85;27513;-76
2021/06/13 05:19:01;;;;;;;9.18;3.17;;;;;;;12.71;80.53;100440.80;1627843;85;26621;-76
2021/06/13 05:21:28;;;;;;;8.50;2.85;;;;;;;12.73;80.38;100453.52;1658659;85;26546;-76
2021/06/13 05:23:55;;;;;;;9.70;3.00;;;;;;;12.76;80.37;100447.23;1635747;85;25850;-75
2021/06/13 05:26:22;;;;;;;10.98;3.37;;;;;;;12.77;80.54;100443.50;1611967;86;25788;-76
2021/06/13 05:28:49;;;;;;;8.90;2.70;;;;;;;12.81;80.26;100454.16;1646297;84;28182;-76
2021/06/13 05:31:16;;;;;;;10.13;3.52;;;;;;;12.82;80.48;100449.10;1681091;83;25962;-76
2021/06/13 05:33:43;;;;;;;6.53;3.20;;;;;;;12.83;80.15;100456.66;1682933;84;25904;-76
2021/06/13 05:36:10;;;;;;;7.55;2.58;;;;;;;12.81;80.09;100450.66;1639600;84;25981;-76
2021/06/13 05:38:40;;;;;;;9.83;2.92;;;;;;;12.85;80.09;100459.97;1641260;84;26499;-77
2021/06/13 05:41:06;;;;;;;6.08;2.85;;;;;;;12.88;80.42;100466.26;1680886;84;28103;-76
2021/06/13 05:43:33;;;;;;;9.35;3.60;;;;;;;12.90;80.29;100470.41;1634257;84;25845;-76
2021/06/13 05:46:02;;;;;;;7.08;2.83;;;;;;;12.91;80.37;100483.34;1648633;84;25933;-76
2021/06/13 05:48:30;;;;;;;9.53;2.90;;;;;;;12.93;80.58;100481.27;1654298;84;26588;-77
2021/06/13 05:50:57;;;;;;;10.88;3.00;;;;;;;12.97;80.75;100486.04;1677774;84;25953;-76
2021/06/13 05:53:24;;;;;;;7.80;3.42;;;;;;;13.02;81.08;100486.77;1653885;84;28135;-75
2021/06/13 05:55:51;;;;;;;9.08;3.08;;;;;;;13.08;80.89;100485.98;1661865;84;25727;-76
2021/06/13 05:58:19;;;;;;;14.55;3.75;;;;;;;13.17;80.79;100491.98;1660218;84;26365;-76
2021/06/13 06:00:46;;;;;;;10.72;3.22;;;;;;;13.25;80.89;100488.58;1678829;84;26686;-76
2021/06/13 06:03:14;;;;;;;7.00;3.22;;;;;;;13.30;80.82;100485.27;1632835;84;25771;-76
2021/06/13 06:05:41;;;;;;;9.43;3.12;;;;;;;13.38;80.66;100492.61;1628337;84;26900;-76
2021/06/13 06:08:08;;;;;;;14.50;3.33;;;;;;;13.49;80.93;100489.81;1687429;84;25914;-76
2021/06/13 06:10:36;;;;;;;12.28;3.80;;;;;;;13.72;81.34;100483.46;1686610;84;26506;-76
2021/06/13 06:13:04;;;;;;;10.28;3.15;;;;;;;13.92;81.30;100493.14;1665915;83;26524;-76
2021/06/13 06:15:35;;;;;;;13.70;3.62;;;;;;;14.10;80.35;100485.75;1650189;83;25926;-76
2021/06/13 06:18:03;;;;;;;10.68;3.37;;;;;;;14.20;80.03;100490.16;1705898;83;28182;-76
2021/06/13 06:20:31;;;;;;;7.95;2.50;;;;;;;14.31;79.51;100494.92;1712062;81;25891;-76
2021/06/13 06:22:59;;;;;;;8.50;3.05;;;;;;;14.34;78.10;100504.45;1643858;83;26117;-77
2021/06/13 06:25:27;;;;;;;12.95;2.95;;;;;;;14.25;77.15;100509.22;1691146;83;25910;-76
2021/06/13 06:27:56;;;;;;;12.37;3.12;;;;;;;14.18;77.58;100508.95;1712960;83;26547;-76
2021/06/13 06:30:26;;;;;;;10.05;2.87;;;;;;;14.19;77.73;100506.03;1711457;83;27571;-76
2021/06/13 06:32:53;;;;;;;11.63;3.35;;;;;;;14.28;77.83;100509.31;1658769;83;25932;-76
2021/06/13 06:35:20;;;;;;;16.10;3.92;;;;;;;14.31;77.39;100513.78;1655789;84;25830;-76
2021/06/13 06:37:47;;;;;;;9.15;3.25;;;;;;;14.43;77.29;100508.05;1694389;84;25802;-77
2021/06/13 06:40:15;;;;;;;11.10;3.85;;;;;;;14.56;77.57;100520.09;1692974;82;25826;-76
2021/06/13 06:42:42;;;;;;;12.45;3.35;;;;;;;14.68;76.69;100514.87;1625717;84;28270;-77
2021/06/13 06:45:12;;;;;;;9.28;2.70;;;;;;;14.80;77.25;100518.53;1628963;84;26087;-77
2021/06/13 06:47:43;;;;;;;12.73;4.03;;;;;;;14.87;75.73;100514.45;1689955;84;25357;-76
2021/06/13 06:50:12;;;;;;;6.33;2.92;;;;;;;14.86;75.10;100513.64;1691066;84;25796;-76
2021/06/13 06:52:39;;;;;;;8.25;3.15;;;;;;;14.84;75.19;100522.44;1675581;84;25914;-75
2021/06/13 06:55:08;;;;;;;9.38;3.22;;;;;;;14.75;74.49;100516.19;1659788;83;28188;-76
2021/06/13 06:57:38;;;;;;;9.58;3.20;;;;;;;14.72;75.03;100512.56;1689738;83;25918;-76
2021/06/13 07:00:07;;;;;;;13.55;2.70;;;;;;;14.73;74.96;100516.92;1676268;84;25878;-76
2021/06/13 07:02:35;;;;;;;10.95;2.85;;;;;;;14.76;74.87;100523.22;1645152;84;25834;-76
2021/06/13 07:05:03;;;;;;;9.98;3.05;;;;;;;14.77;74.87;100521.67;1623779;84;26017;-76
2021/06/13 07:07:30;;;;;;;12.15;3.27;;;;;;;14.82;74.77;100515.64;1689689;84;27507;-76
2021/06/13 07:09:57;;;;;;;10.05;3.47;;;;;;;14.83;74.83;100515.41;1673778;84;25906;-77
2021/06/13 07:12:25;;;;;;;10.10;3.42;;;;;;;14.87;74.64;100520.67;1659046;84;25373;-76
2021/06/13 07:14:53;;;;;;;8.60;2.95;;;;;;;14.90;74.15;100518.08;1624457;84;26032;-77
2021/06/13 07:17:20;;;;;;;10.50;3.27;;;;;;;14.94;74.47;100515.24;1680869;84;26617;-76
2021/06/13 07:19:47;;;;;;;11.18;3.47;;;;;;;14.99;73.67;100521.63;1714514;81;27483;-76
2021/06/13 07:22:14;;;;;;;10.48;3.67;;;;;;;14.98;73.23;100517.30;1685304;83;25956;-76
2021/06/13 07:24:41;;;;;;;11.03;3.50;;;;;;;15.00;73.47;100525.16;1632880;84;25462;-77
2021/06/13 07:27:08;;;;;;;9.03;3.42;;;;;;;15.00;71.75;100515.72;1681809;84;25863;-76
2021/06/13 07:29:35;;;;;;;7.08;2.90;;;;;;;15.00;73.28;100517.90;1674319;84;25696;-77
2021/06/13 07:32:03;;;;;;;12.60;3.22;;;;;;;15.11;73.04;100519.91;1634432;84;27501;-76
2021/06/13 07:34:30;;;;;;;9.78;3.30;;;;;;;15.18;72.51;100521.22;1646636;83;25802;-76
2021/06/13 07:37:02;;;;;;;9.00;3.60;;;;;;;15.32;72.44;100526.80;1681377;83;25353;-75
2021/06/13 07:39:26;;;;;;;9.45;3.67;;;;;;;15.46;72.71;100523.52;1706574;83;25808;-77
2021/06/13 07:41:54;;;;;;;13.70;3.65;;;;;;;15.66;73.40;100525.52;1659342;83;25806;-77
2021/06/13 07:44:21;;;;;;;9.65;3.27;;;;;;;15.81;72.90;100534.94;1649067;84;27626;-76
2021/06/13 07:46:48;;;;;;;9.43;3.47;;;;;;;15.90;72.49;100530.91;1687763;83;25795;-76
2021/06/13 07:49:15;;;;;;;11.95;3.10;;;;;;;15.99;71.49;100533.62;1687497;83;25903;-75
2021/06/13 07:51:43;;;;;;;10.80;3.70;;;;;;;15.94;71.42;100544.78;1669002;83;26013;-76
2021/06/13 07:54:10;;;;;;;14.83;3.50;;;;;;;15.86;70.91;100549.13;1635345;84;25845;-77
2021/06/13 07:56:37;;;;;;;11.90;4.47;;;;;;;15.81;69.46;100545.73;1687816;84;28281;-76
2021/06/13 07:59:04;;;;;;;12.10;3.83;;;;;;;15.75;70.71;100552.03;1685592;83;26566;-77
2021/06/13 08:01:31;;;;;;;13.72;4.17;;;;;;;15.73;69.52;100554.64;1635132;85;25809;-75
2021/06/13 08:03:59;;;;;;;10.60;3.37;;;;;;;15.76;71.11;100556.37;1623923;85;26659;-76
2021/06/13 08:06:26;;;;;;;11.22;3.33;;;;;;;15.80;70.27;100552.72;1663456;85;26602;-75
2021/06/13 08:08:53;;;;;;;8.38;3.40;;;;;;;15.81;70.64;100555.70;1650475;86;27552;-76
2021/06/13 08:11:20;;;;;;;9.65;3.92;;;;;;;15.87;70.57;100566.97;1594114;85;26556;-76
2021/06/13 08:13:47;;;;;;;10.10;3.37;;;;;;;15.90;70.63;100559.78;1626700;85;25834;-76
2021/06/13 08:16:14;;;;;;;4.85;2.95;;;;;;;15.98;71.28;100562.20;1665317;85;25919;-76
2021/06/13 08:18:41;;;;;;;11.85;3.27;;;;;;;15.98;69.68;100571.13;1667637;85;25843;-76
2021/06/13 08:21:08;;;;;;;8.18;2.87;;;;;;;15.93;70.09;100562.06;1637802;85;27607;-77
2021/06/13 08:23:35;;;;;;;10.95;3.70;;;;;;;15.90;70.00;100571.94;1608468;85;26775;-77
2021/06/13 08:26:02;;;;;;;11.00;3.40;;;;;;;15.88;70.14;100581.62;1652893;85;25882;-76
2021/06/13 08:28:30;;;;;;;11.80;4.03;;;;;;;15.88;70.20;100574.04;1646723;85;26560;-77
2021/06/13 08:30:57;;;;;;;7.92;2.87;;;;;;;15.88;69.85;100582.98;1608514;85;25829;-76
2021/06/13 08:33:24;;;;;;;9.85;3.27;;;;;;;15.85;69.97;100578.52;1585125;86;27149;-76
2021/06/13 08:35:52;;;;;;;7.65;3.22;;;;;;;15.86;70.16;100578.33;1656594;84;25895;-76
2021/06/13 08:38:21;;;;;;;10.60;3.77;;;;;;;15.89;70.18;100581.91;1668520;85;25891;-77
2021/06/13 08:40:49;;;;;;;8.40;3.33;;;;;;;15.91;69.92;100579.81;1628131;85;26616;-76
2021/06/13 08:43:17;;;;;;;10.78;3.80;;;;;;;15.98;70.18;100589.22;1625697;85;25888;-76
2021/06/13 08:45:45;;;;;;;17.48;3.65;;;;;;;16.06;69.75;100592.98;1647837;85;27703;-76
2021/06/13 08:48:13;;;;;;;11.93;3.55;;;;;;;16.16;69.85;100594.15;1665873;85;25858;-76
2021/06/13 08:50:42;;;;;;;17.92;2.98;;;;;;;16.28;70.60;100605.55;1629052;85;26355;-76
2021/06/13 08:53:09;;;;;;;6.28;2.65;;;;;;;16.39;70.08;100598.89;1648887;85;26458;-77
2021/06/13 08:55:36;;;;;;;8.73;3.85;;;;;;;16.48;69.31;100608.36;1662578;85;25759;-76
2021/06/13 08:58:05;;;;;;;9.78;3.17;;;;;;;16.48;69.35;100611.59;1666668;85;27527;-77
2021/06/13 09:00:33;;;;;;;9.28;4.03;;;;;;;16.55;69.56;100624.00;1600884;85;26035;-77
2021/06/13 09:03:05;;;;;;;10.80;3.33;;;;;;;16.51;68.13;100617.94;1607314;85;25825;-76
2021/06/13 09:05:32;;;;;;;9.48;3.27;;;;;;;16.39;67.31;100629.98;1710665;82;27008;-77
2021/06/13 09:08:08;;;;;;;8.35;3.58;;;;;;;16.31;68.10;100632.98;1705046;83;26549;-77
2021/06/13 09:10:41;;;;;;;8.40;4.03;;;;;;;16.26;68.33;100632.81;1651933;84;27485;-76
2021/06/13 09:13:19;;;;;;;11.53;3.98;;;;;;;16.17;67.72;100628.73;1667278;84;25778;-77
2021/06/13 09:15:54;;;;;;;11.48;3.25;;;;;;;16.10;67.90;100645.00;1684884;84;25826;-76
2021/06/13 09:18:43;;;;;;;7.95;3.10;;;;;;;16.05;67.99;100650.27;1689588;84;26462;-75
2021/06/13 09:21:27;;;;;;;6.20;2.70;;;;;;;16.00;68.24;100637.09;1670532;84;25937;-76
2021/06/13 09:23:55;;;;;;;13.53;3.02;;;;;;;15.97;68.51;100655.92;1644407;84;28126;-77
2021/06/13 09:26:29;;;;;;;10.85;3.87;;;;;;;15.95;68.83;100659.91;1697805;83;26649;-77
2021/06/13 09:28:58;;;;;;;9.13;3.47;;;;;;;15.94;69.65;100654.20;1692118;83;25869;-76
2021/06/13 09:31:31;;;;;;;8.80;3.50;;;;;;;16.00;69.34;100658.20;1668902;84;25920;-76
2021/06/13 09:34:00;;;;;;;7.83;3.17;;;;;;;16.08;69.36;100664.67;1698539;83;25817;-76
2021/06/13 09:36:34;;;;;;;10.10;3.77;;;;;;;16.10;68.85;100659.87;1673919;83;28232;-77
2021/06/13 09:39:05;;;;;;;8.90;3.75;;;;;;;16.12;69.36;100661.82;1683236;84;25760;-76
2021/06/13 09:41:39;;;;;;;8.95;3.47;;;;;;;16.20;68.83;100672.38;1647532;83;26711;-75
2021/06/13 09:44:10;;;;;;;6.65;2.80;;;;;;;16.25;68.66;100668.18;1687154;83;26214;-76
2021/06/13 09:46:48;;;;;;;8.38;3.42;;;;;;;16.25;68.60;100674.42;1667507;83;25895;-76
2021/06/13 09:49:18;;;;;;;12.45;3.83;;;;;;;16.26;68.37;100665.77;1654578;83;27484;-76
2021/06/13 09:51:49;;;;;;;8.55;3.47;;;;;;;16.29;67.68;100669.39;1671826;84;25964;-76
2021/06/13 09:54:27;;;;;;;8.75;3.10;;;;;;;16.36;68.57;100671.52;1693468;83;25858;-75
2021/06/13 09:56:57;;;;;;;6.62;2.98;;;;;;;16.47;67.79;100666.18;1667935;84;25888;-75
2021/06/13 09:59:32;;;;;;;10.03;3.87;;;;;;;16.58;67.42;100672.76;1651692;84;25979;-76
2021/06/13 10:02:01;;;;;;;10.80;3.52;;;;;;;16.70;68.57;100670.44;1666480;84;27516;-77
2021/06/13 10:04:36;;;;;;;7.92;3.02;;;;;;;16.80;67.25;100680.23;1683694;84;26206;-76
2021/06/13 10:07:24;;;;;;;13.70;3.10;;;;;;;16.91;67.89;100674.04;1671841;84;25798;-76
2021/06/13 10:09:54;;;;;;;8.70;2.70;;;;;;;17.16;68.22;100673.97;1666609;82;25965;-76
2021/06/13 10:12:22;;;;;;;10.75;2.87;;;;;;;17.29;66.21;100678.38;1652236;84;25841;-76
2021/06/13 10:14:51;;;;;;;11.12;2.98;;;;;;;17.28;66.49;100691.08;1689621;83;27248;-76
2021/06/13 10:17:30;;;;;;;14.70;3.00;;;;;;;17.26;66.02;100682.88;1663200;84;25757;-76
2021/06/13 10:19:57;;;;;;;7.55;2.70;;;;;;;17.21;65.75;100688.17;1692221;84;25781;-75
2021/06/13 10:22:25;;;;;;;8.50;3.10;;;;;;;17.16;65.54;100682.61;1642390;84;25875;-76
2021/06/13 10:24:52;;;;;;;9.68;3.25;;;;;;;17.09;64.66;100690.80;1685644;84;25784;-76
2021/06/13 10:27:21;;;;;;;12.37;3.02;;;;;;;17.07;65.88;100694.27;1666747;84;27418;-76
2021/06/13 10:29:51;;;;;;;10.88;3.25;;;;;;;17.12;65.84;100694.42;1641053;82;25867;-77
2021/06/13 10:32:23;;;;;;;11.50;3.37;;;;;;;17.20;66.02;100686.50;1640591;84;25824;-76
2021/06/13 10:34:51;;;;;;;8.35;3.00;;;;;;;17.28;66.28;100686.22;1692833;84;25879;-74
2021/06/13 10:37:18;;;;;;;11.90;2.87;;;;;;;17.33;66.27;100685.81;1662639;84;25868;-75
2021/06/13 10:39:49;;;;;;;6.50;2.50;;;;;;;17.35;65.35;100693.70;1660235;82;27550;-75
2021/06/13 10:42:16;;;;;;;9.60;2.85;;;;;;;17.28;64.61;100690.28;1655179;84;25919;-76
2021/06/13 10:44:56;;;;;;;8.03;2.27;;;;;;;17.25;65.37;100702.38;1684010;84;25853;-76
2021/06/13 10:47:23;;;;;;;8.08;2.98;;;;;;;17.29;64.99;100702.22;1653490;84;26359;-77
2021/06/13 10:49:58;;;;;;;5.65;2.12;;;;;;;17.29;64.97;100702.22;1645890;84;25850;-77
2021/06/13 10:52:28;;;;;;;8.85;2.65;;;;;;;17.31;64.89;100700.63;1695002;84;27591;-76
2021/06/13 10:54:58;;;;;;;7.80;2.12;;;;;;;17.33;63.87;100698.52;1651357;84;26314;-76
2021/06/13 10:57:40;;;;;;;7.05;2.00;;;;;;;17.35;63.23;100702.66;1653881;84;26437;-76
2021/06/13 11:00:27;;;;;;;8.50;2.75;;;;;;;17.43;63.25;100694.21;1661836;84;25846;-76
2021/06/13 11:03:00;;;;;;;8.55;2.65;;;;;;;17.55;64.38;100708.69;1671427;83;25859;-76
2021/06/13 11:05:47;;;;;;;6.50;2.67;;;;;;;17.72;63.98;100703.44;1650217;84;28537;-77
2021/06/13 11:08:17;;;;;;;9.93;2.50;;;;;;;17.88;63.92;100704.67;1637200;85;40837;-75
2021/06/13 11:10:47;;;;;;;8.30;2.30;;;;;;;18.03;62.53;100702.32;1599626;87;26060;-75
2021/06/13 11:13:21;;;;;;;9.05;2.22;;;;;;;18.17;62.57;100710.55;1599269;87;25882;-76
2021/06/13 11:15:51;;;;;;;8.45;2.40;;;;;;;18.30;62.35;100708.98;1629871;84;25862;-77
2021/06/13 11:18:26;;;;;;;7.05;2.45;;;;;;;18.40;62.02;100701.92;1666051;84;28634;-79
2021/06/13 11:23:36;;;;;;;8.50;2.47;;;;;;;18.46;59.92;100707.78;1605334;88;25970;-76
2021/06/13 11:26:08;;;;;;;6.70;2.17;;;;;;;18.48;59.20;100716.51;1633264;86;25896;-76
2021/06/13 11:28:46;;;;;;;8.08;2.77;;;;;;;18.41;58.87;100709.53;1591499;88;26603;-76
2021/06/13 11:31:21;;;;;;;7.65;2.08;;;;;;;18.36;58.89;100715.66;1606438;86;27597;-79
2021/06/13 11:33:55;;;;;;;8.40;2.55;;;;;;;18.35;58.90;100708.56;1601225;87;26660;-77
2021/06/13 11:36:34;;;;;;;7.80;2.50;;;;;;;18.32;59.75;100712.29;1607847;87;25734;-75
2021/06/13 11:39:10;;;;;;;11.12;2.42;;;;;;;18.36;60.48;100712.95;1655600;85;25907;-77